Time;durP1;ratioP1;P1;durP2;ratioP2;P2;SDS_P1;SDS_P2;PMS_P1;PMS_P2;Temp;Humidity;BMP_temperature;BMP_pressure;BME280_temperature;BME280_humidity;BME280_pressure;Samples;Min_cycle;Max_cycle;Signal;HPM_P1;HPM_P2
2023/01/20 00:02:00;;;;;;;76.00;29.17;;;1.20;99.90;;;;;;5050031;28;20033;-71
2023/01/20 00:04:26;;;;;;;80.32;29.42;;;1.20;99.90;;;;;;5050841;28;20036;-71
2023/01/20 00:06:51;;;;;;;67.97;28.25;;;1.20;99.90;;;;;;5049678;28;20073;-72
2023/01/20 00:09:17;;;;;;;62.80;27.67;;;1.20;99.90;;;;;;5050940;28;20037;-71
2023/01/20 00:11:43;;;;;;;78.07;31.45;;;1.20;99.90;;;;;;5045068;28;20071;-71
2023/01/20 00:14:09;;;;;;;67.78;28.38;;;1.20;99.90;;;;;;5056642;28;20040;-71
2023/01/20 00:16:35;;;;;;;78.55;29.45;;;1.20;99.90;;;;;;5056520;28;20025;-71
2023/01/20 00:19:01;;;;;;;71.35;29.50;;;1.10;99.90;;;;;;5049560;28;20029;-71
2023/01/20 00:21:26;;;;;;;70.63;28.85;;;1.20;99.90;;;;;;5049380;28;20068;-71
2023/01/20 00:23:52;;;;;;;67.80;27.55;;;1.20;99.90;;;;;;5053883;28;20036;-71
2023/01/20 00:26:20;;;;;;;66.68;25.58;;;1.20;99.90;;;;;;5052571;28;20025;-71
2023/01/20 00:28:46;;;;;;;68.00;26.85;;;1.20;99.90;;;;;;5052744;28;20028;-71
2023/01/20 00:31:18;;;;;;;61.25;25.20;;;1.20;99.90;;;;;;5052020;28;20029;-71
2023/01/20 00:33:45;;;;;;;62.63;24.67;;;1.20;99.90;;;;;;5049566;28;20120;-71
2023/01/20 00:36:11;;;;;;;68.40;26.52;;;1.20;99.90;;;;;;5049384;28;20495;-71
2023/01/20 00:38:37;;;;;;;68.07;26.88;;;1.20;99.90;;;;;;5050490;28;20394;-71
2023/01/20 00:41:04;;;;;;;65.18;27.52;;;1.20;99.90;;;;;;5052226;28;20028;-71
2023/01/20 00:43:30;;;;;;;66.28;26.30;;;1.20;99.90;;;;;;5046564;28;20025;-71
2023/01/20 00:45:55;;;;;;;66.75;28.02;;;1.20;99.90;;;;;;5048805;28;20035;-71
2023/01/20 00:48:21;;;;;;;63.08;25.77;;;1.20;99.90;;;;;;5049231;28;20504;-71
2023/01/20 00:50:46;;;;;;;56.30;24.17;;;1.20;99.90;;;;;;5047323;28;20485;-71
2023/01/20 00:53:12;;;;;;;60.05;25.48;;;1.20;99.90;;;;;;5044291;28;20032;-71
2023/01/20 00:55:38;;;;;;;57.78;25.70;;;1.20;99.90;;;;;;5050415;28;20088;-71
2023/01/20 00:58:04;;;;;;;57.03;22.83;;;1.20;99.90;;;;;;5047819;28;20027;-71
2023/01/20 01:00:29;;;;;;;57.55;25.10;;;1.20;99.90;;;;;;5049850;28;20376;-71
2023/01/20 01:02:55;;;;;;;53.38;23.42;;;1.20;99.90;;;;;;5048071;28;20021;-71
2023/01/20 01:05:21;;;;;;;56.25;24.30;;;1.20;99.90;;;;;;5048768;28;20091;-71
2023/01/20 01:07:47;;;;;;;52.78;22.45;;;1.20;99.90;;;;;;5049580;28;20107;-71
2023/01/20 01:10:13;;;;;;;60.38;24.48;;;1.20;99.90;;;;;;5055863;28;20112;-71
2023/01/20 01:12:39;;;;;;;54.78;22.63;;;1.20;99.90;;;;;;5048833;28;20033;-71
2023/01/20 01:15:05;;;;;;;57.63;23.35;;;1.20;99.90;;;;;;5046466;28;20036;-71
2023/01/20 01:17:30;;;;;;;45.65;21.60;;;1.20;99.90;;;;;;5049664;28;20104;-71
2023/01/20 01:19:55;;;;;;;42.85;20.00;;;1.20;99.90;;;;;;5057210;28;20032;-71
2023/01/20 01:22:21;;;;;;;43.17;19.30;;;1.20;99.90;;;;;;5052106;28;20376;-71
2023/01/20 01:24:47;;;;;;;45.92;19.95;;;1.20;99.90;;;;;;5050164;28;20033;-71
2023/01/20 01:27:13;;;;;;;43.90;19.25;;;1.10;99.90;;;;;;5048076;28;20525;-71
2023/01/20 01:29:39;;;;;;;46.47;20.50;;;1.10;99.90;;;;;;5051397;28;20032;-71
2023/01/20 01:32:05;;;;;;;46.47;18.77;;;1.10;99.90;;;;;;5050550;28;20021;-71
2023/01/20 01:34:30;;;;;;;48.00;20.17;;;1.10;99.90;;;;;;5056770;28;20044;-71
2023/01/20 01:36:56;;;;;;;45.92;20.58;;;1.10;99.90;;;;;;5060568;28;20475;-71
2023/01/20 01:39:22;;;;;;;42.92;18.55;;;1.10;99.90;;;;;;5052186;28;20401;-71
2023/01/20 01:41:48;;;;;;;47.53;21.30;;;1.10;99.90;;;;;;5053133;28;20400;-73
2023/01/20 01:44:14;;;;;;;45.70;19.52;;;1.10;99.90;;;;;;5050893;28;20032;-71
2023/01/20 01:46:41;;;;;;;42.50;19.42;;;1.10;99.90;;;;;;5053355;28;20029;-71
2023/01/20 01:49:24;;;;;;;44.80;19.73;;;1.10;99.90;;;;;;5052420;28;20060;-71
2023/01/20 01:52:00;;;;;;;41.13;17.98;;;1.10;99.90;;;;;;5047944;28;20029;-71
2023/01/20 01:54:33;;;;;;;43.38;19.23;;;1.10;99.90;;;;;;5044304;28;20029;-71
2023/01/20 01:56:59;;;;;;;40.25;16.30;;;1.10;99.90;;;;;;5047974;28;20024;-71
2023/01/20 01:59:25;;;;;;;43.78;19.67;;;1.00;99.90;;;;;;5052907;28;20032;-71
2023/01/20 02:01:52;;;;;;;42.30;18.10;;;1.00;99.90;;;;;;5054985;28;20028;-72
2023/01/20 02:04:29;;;;;;;47.80;19.75;;;1.00;99.90;;;;;;5053270;28;20028;-71
2023/01/20 02:07:06;;;;;;;42.72;17.75;;;1.00;99.90;;;;;;5050338;28;20147;-71
2023/01/20 02:09:33;;;;;;;46.92;19.70;;;1.00;99.90;;;;;;5053413;28;20417;-71
2023/01/20 02:12:07;;;;;;;46.58;19.92;;;1.00;99.90;;;;;;5049433;28;20024;-72
2023/01/20 02:14:43;;;;;;;54.22;21.27;;;1.00;99.90;;;;;;5052952;28;20037;-71
2023/01/20 02:17:27;;;;;;;55.70;21.92;;;1.10;99.90;;;;;;5052088;28;20029;-71
2023/01/20 02:20:14;;;;;;;55.92;23.13;;;1.10;99.90;;;;;;5051061;28;20036;-71
2023/01/20 02:23:16;;;;;;;63.25;24.15;;;1.10;99.90;;;;;;5052365;28;20040;-71
2023/01/20 02:26:20;;;;;;;52.63;20.75;;;1.10;99.90;;;;;;5051126;28;20065;-71
2023/01/20 02:29:31;;;;;;;62.92;23.65;;;1.10;99.90;;;;;;5048417;28;20033;-71
2023/01/20 02:32:31;;;;;;;64.15;24.55;;;1.10;99.90;;;;;;5051206;28;20304;-71
2023/01/20 02:35:01;;;;;;;66.07;26.38;;;1.10;99.90;;;;;;5054964;28;20044;-72
2023/01/20 02:37:30;;;;;;;63.22;24.08;;;1.10;99.90;;;;;;5052732;28;20033;-72
2023/01/20 02:40:05;;;;;;;70.43;27.73;;;1.10;99.90;;;;;;5052467;28;20033;-71
2023/01/20 02:42:36;;;;;;;73.00;28.30;;;1.10;99.90;;;;;;5052423;28;20086;-71
2023/01/20 02:45:09;;;;;;;75.78;28.33;;;1.10;99.90;;;;;;5050127;28;20104;-71
2023/01/20 02:47:55;;;;;;;69.32;25.88;;;1.10;99.90;;;;;;5052224;28;20029;-72
2023/01/20 02:50:34;;;;;;;81.80;28.55;;;1.10;99.90;;;;;;5047995;28;20354;-71
2023/01/20 02:53:02;;;;;;;85.18;30.73;;;1.10;99.90;;;;;;5051764;28;20472;-71
2023/01/20 02:55:32;;;;;;;81.30;29.45;;;1.10;99.90;;;;;;5049236;28;20408;-71
2023/01/20 02:58:03;;;;;;;86.80;30.17;;;1.10;99.90;;;;;;5048646;28;20029;-71
2023/01/20 03:00:35;;;;;;;71.65;26.50;;;1.10;99.90;;;;;;5054070;28;20021;-71
2023/01/20 03:03:05;;;;;;;79.15;28.95;;;1.10;99.90;;;;;;5060131;28;20029;-71
2023/01/20 03:05:34;;;;;;;87.30;30.70;;;1.10;99.90;;;;;;5055300;28;20127;-71
2023/01/20 03:08:04;;;;;;;91.82;32.20;;;1.10;99.90;;;;;;5050710;28;20048;-72
2023/01/20 03:10:32;;;;;;;89.53;29.17;;;1.10;99.90;;;;;;5048051;28;20151;-71
2023/01/20 03:13:05;;;;;;;80.30;28.38;;;1.10;99.90;;;;;;5047973;28;20435;-71
2023/01/20 03:15:42;;;;;;;77.18;27.55;;;1.10;99.90;;;;;;5048630;28;20033;-71
2023/01/20 03:18:07;;;;;;;92.22;30.30;;;1.10;99.90;;;;;;5049932;28;20041;-72
2023/01/20 03:20:33;;;;;;;86.10;29.60;;;1.10;99.90;;;;;;5052786;28;20471;-72
2023/01/20 03:22:59;;;;;;;85.78;29.48;;;1.10;99.90;;;;;;5061599;28;20027;-71
2023/01/20 03:25:25;;;;;;;89.57;31.33;;;1.10;99.90;;;;;;5050597;28;20377;-72
2023/01/20 03:27:50;;;;;;;95.82;32.63;;;1.10;99.90;;;;;;5052272;28;20033;-71
2023/01/20 03:30:16;;;;;;;100.05;31.23;;;1.10;99.90;;;;;;5050666;28;20025;-71
2023/01/20 03:32:45;;;;;;;93.40;30.42;;;1.10;99.90;;;;;;5049536;28;20116;-71
2023/01/20 03:35:14;;;;;;;86.60;29.52;;;1.10;99.90;;;;;;5051361;28;20090;-72
2023/01/20 03:37:40;;;;;;;84.55;30.92;;;1.10;99.90;;;;;;5050067;28;20481;-72
2023/01/20 03:40:07;;;;;;;91.75;29.38;;;1.10;99.90;;;;;;5052717;28;20021;-72
2023/01/20 03:42:55;;;;;;;83.82;29.83;;;1.10;99.90;;;;;;5050903;28;20433;-71
2023/01/20 03:45:25;;;;;;;86.38;29.40;;;1.10;99.90;;;;;;5049325;28;20033;-72
2023/01/20 03:48:17;;;;;;;94.90;29.80;;;1.10;99.90;;;;;;5047436;28;20032;-72
2023/01/20 03:51:12;;;;;;;91.10;29.88;;;1.10;99.90;;;;;;5050868;28;20503;-71
2023/01/20 03:53:51;;;;;;;95.45;29.98;;;1.20;99.90;;;;;;5049242;28;20392;-72
2023/01/20 03:56:22;;;;;;;88.68;29.63;;;1.10;99.90;;;;;;5053861;28;20021;-72
2023/01/20 03:58:52;;;;;;;82.50;28.73;;;1.10;99.90;;;;;;5046634;28;20068;-72
2023/01/20 04:01:22;;;;;;;95.20;29.55;;;1.10;99.90;;;;;;5049538;28;20024;-71
2023/01/20 04:03:51;;;;;;;81.15;27.92;;;1.10;99.90;;;;;;5050065;28;20086;-71
2023/01/20 04:06:20;;;;;;;94.50;31.77;;;1.10;99.90;;;;;;5049096;28;20093;-71
2023/01/20 04:08:55;;;;;;;84.18;27.83;;;1.10;99.90;;;;;;5049452;28;20048;-72
2023/01/20 04:11:20;;;;;;;90.13;28.48;;;1.10;99.90;;;;;;5047984;28;20024;-72
2023/01/20 04:13:46;;;;;;;80.47;26.25;;;1.10;99.90;;;;;;5050429;28;20025;-71
2023/01/20 04:16:15;;;;;;;70.05;24.50;;;1.10;99.90;;;;;;5052019;28;20056;-72
2023/01/20 04:18:44;;;;;;;84.40;25.60;;;1.10;99.90;;;;;;5048888;28;20039;-72
2023/01/20 04:21:31;;;;;;;85.45;27.83;;;1.10;99.90;;;;;;5051267;28;20025;-72
2023/01/20 04:24:09;;;;;;;78.97;27.95;;;1.10;99.90;;;;;;5050217;28;20112;-72
2023/01/20 04:26:35;;;;;;;80.22;25.55;;;1.10;99.90;;;;;;5039584;28;20029;-72
2023/01/20 04:29:07;;;;;;;68.15;23.20;;;1.10;99.90;;;;;;5048339;28;20029;-70
2023/01/20 04:31:34;;;;;;;76.25;25.90;;;1.10;99.90;;;;;;5049633;28;20389;-70
2023/01/20 04:34:00;;;;;;;77.13;27.05;;;1.00;99.90;;;;;;5048996;28;20037;-70
2023/01/20 04:36:25;;;;;;;74.95;24.75;;;1.10;99.90;;;;;;5049343;28;20028;-69
2023/01/20 04:38:51;;;;;;;68.43;24.25;;;1.10;99.90;;;;;;5050234;28;20029;-70
2023/01/20 04:41:17;;;;;;;72.10;24.85;;;1.10;99.90;;;;;;5047830;28;20071;-70
2023/01/20 04:43:44;;;;;;;68.85;22.95;;;1.10;99.90;;;;;;5050268;28;20453;-70
2023/01/20 04:46:14;;;;;;;77.60;25.70;;;1.10;99.90;;;;;;5053751;28;20024;-70
2023/01/20 04:48:40;;;;;;;68.38;23.55;;;1.10;99.90;;;;;;5047285;28;20076;-70
2023/01/20 04:51:07;;;;;;;70.15;24.38;;;1.10;99.90;;;;;;5049098;28;20473;-69
2023/01/20 04:53:33;;;;;;;64.10;23.92;;;1.10;99.90;;;;;;5048868;28;20044;-69
2023/01/20 04:55:59;;;;;;;65.30;23.73;;;1.10;99.90;;;;;;5046521;28;20543;-70
2023/01/20 04:58:25;;;;;;;75.57;25.50;;;1.10;99.90;;;;;;5048542;28;20028;-70
2023/01/20 05:00:50;;;;;;;72.00;24.20;;;1.10;99.90;;;;;;5065216;28;20392;-70
2023/01/20 05:03:18;;;;;;;75.47;25.17;;;1.10;99.90;;;;;;5048648;28;20048;-70
2023/01/20 05:05:50;;;;;;;60.55;21.15;;;1.10;99.90;;;;;;5053636;28;20552;-70
2023/01/20 05:08:15;;;;;;;73.18;25.75;;;1.10;99.90;;;;;;5052608;28;20044;-70
2023/01/20 05:10:41;;;;;;;72.15;24.05;;;1.00;99.90;;;;;;5053155;28;20267;-70
2023/01/20 05:13:06;;;;;;;67.20;23.73;;;1.00;99.90;;;;;;5053504;28;20029;-70
2023/01/20 05:15:32;;;;;;;70.25;23.90;;;1.00;99.90;;;;;;5053645;28;20401;-70
2023/01/20 05:17:57;;;;;;;73.15;26.20;;;1.00;99.90;;;;;;5050667;28;20025;-70
2023/01/20 05:20:23;;;;;;;74.25;24.45;;;1.00;99.90;;;;;;5049738;28;20036;-71
2023/01/20 05:22:48;;;;;;;73.32;23.85;;;1.00;99.90;;;;;;5054008;28;20096;-70
2023/01/20 05:25:14;;;;;;;73.47;23.45;;;1.00;99.90;;;;;;5053212;28;20032;-70
2023/01/20 05:27:39;;;;;;;76.35;25.30;;;1.00;99.90;;;;;;5044194;28;20021;-70
2023/01/20 05:30:06;;;;;;;71.60;23.98;;;1.00;99.90;;;;;;5051367;28;20365;-70
2023/01/20 05:32:32;;;;;;;75.30;24.98;;;1.00;99.90;;;;;;5049278;28;20508;-70
2023/01/20 05:34:57;;;;;;;74.68;25.40;;;1.00;99.90;;;;;;5052090;28;20044;-70
2023/01/20 05:37:23;;;;;;;68.65;22.55;;;1.00;99.90;;;;;;5052222;28;20366;-70
2023/01/20 05:39:48;;;;;;;72.75;25.20;;;1.00;99.90;;;;;;5051624;28;20033;-70
2023/01/20 05:42:14;;;;;;;76.38;25.23;;;1.00;99.90;;;;;;5052503;28;20366;-70
2023/01/20 05:44:40;;;;;;;64.28;23.15;;;1.00;99.90;;;;;;5051684;28;20377;-71
2023/01/20 05:47:06;;;;;;;67.20;24.10;;;1.00;99.90;;;;;;5047170;28;20104;-71
2023/01/20 05:49:31;;;;;;;69.20;23.67;;;1.00;99.90;;;;;;5052244;28;20029;-70
2023/01/20 05:51:57;;;;;;;68.93;23.25;;;1.00;99.90;;;;;;5052211;28;20063;-70
2023/01/20 05:54:22;;;;;;;73.90;25.08;;;1.00;99.90;;;;;;5052313;28;20104;-70
2023/01/20 05:56:48;;;;;;;67.80;24.65;;;1.00;99.90;;;;;;5056658;28;20032;-70
2023/01/20 05:59:14;;;;;;;68.63;22.92;;;0.90;99.90;;;;;;5048468;28;20483;-70
2023/01/20 06:01:39;;;;;;;67.15;23.70;;;0.90;99.90;;;;;;5052718;28;20028;-70
2023/01/20 06:04:05;;;;;;;78.78;26.02;;;0.90;99.90;;;;;;5050344;28;20035;-70
2023/01/20 06:06:31;;;;;;;74.20;24.13;;;1.00;99.90;;;;;;5045974;28;20148;-70
2023/01/20 06:08:56;;;;;;;70.40;25.77;;;0.90;99.90;;;;;;5040132;28;20040;-70
2023/01/20 06:11:22;;;;;;;73.78;24.75;;;0.90;99.90;;;;;;5044422;28;20021;-70
2023/01/20 06:13:48;;;;;;;79.57;26.80;;;0.90;99.90;;;;;;5048301;28;20392;-70
2023/01/20 06:16:16;;;;;;;69.07;26.40;;;0.90;99.90;;;;;;5051139;28;20029;-70
2023/01/20 06:18:41;;;;;;;70.47;25.20;;;0.90;99.90;;;;;;5037595;28;20076;-70
2023/01/20 06:21:07;;;;;;;82.80;27.38;;;0.90;99.90;;;;;;5050316;28;20096;-71
2023/01/20 06:23:33;;;;;;;71.78;26.02;;;0.90;99.90;;;;;;5052487;28;20063;-70
2023/01/20 06:26:04;;;;;;;67.15;26.05;;;0.90;99.90;;;;;;5048876;28;20567;-71
2023/01/20 06:28:31;;;;;;;77.50;23.92;;;0.90;99.90;;;;;;5052105;28;20025;-70
2023/01/20 06:31:09;;;;;;;70.60;24.08;;;0.90;99.90;;;;;;5049263;28;20021;-70
2023/01/20 06:33:35;;;;;;;72.28;24.23;;;0.90;99.90;;;;;;5045192;28;20059;-71
2023/01/20 06:36:00;;;;;;;68.88;24.58;;;0.90;99.90;;;;;;5052934;28;20026;-71
2023/01/20 06:38:28;;;;;;;70.07;25.10;;;0.90;99.90;;;;;;5053097;28;20060;-71
2023/01/20 06:40:59;;;;;;;76.20;26.48;;;0.90;99.90;;;;;;5046102;28;20036;-71
2023/01/20 06:43:26;;;;;;;69.47;25.08;;;0.90;99.90;;;;;;5042270;28;20060;-71
2023/01/20 06:45:52;;;;;;;77.57;28.10;;;0.90;99.90;;;;;;5050336;28;20434;-72
2023/01/20 06:48:17;;;;;;;70.22;25.33;;;0.90;99.90;;;;;;5052922;28;20032;-71
2023/01/20 06:50:43;;;;;;;76.18;25.25;;;0.90;99.90;;;;;;5044306;28;20116;-70
2023/01/20 06:53:10;;;;;;;75.03;24.90;;;0.90;99.90;;;;;;5382458;22;20135;-93
2023/01/20 06:55:35;;;;;;;81.40;26.33;;;0.90;99.90;;;;;;5061256;28;20030;-94
2023/01/20 06:58:01;;;;;;;77.10;27.17;;;0.90;99.90;;;;;;5056596;28;20078;-95
2023/01/20 07:00:28;;;;;;;77.88;26.60;;;0.90;99.90;;;;;;5051740;28;20031;-94
2023/01/20 07:02:53;;;;;;;76.65;25.50;;;0.90;99.90;;;;;;5055595;28;20025;-94
2023/01/20 07:05:19;;;;;;;84.15;25.35;;;0.90;99.90;;;;;;5053729;28;20084;-95
2023/01/20 07:07:45;;;;;;;69.47;24.67;;;0.90;99.90;;;;;;5046139;28;20033;-95
2023/01/20 07:10:11;;;;;;;74.63;27.45;;;0.90;99.90;;;;;;5051936;28;20025;-95
2023/01/20 07:12:37;;;;;;;72.68;26.73;;;0.90;99.90;;;;;;5043710;28;20025;-94
2023/01/20 07:15:03;;;;;;;74.78;25.83;;;0.90;99.90;;;;;;5055679;28;20063;-95
2023/01/20 07:17:28;;;;;;;71.50;25.60;;;0.90;99.90;;;;;;5056552;28;20075;-95
2023/01/20 07:19:54;;;;;;;74.25;28.17;;;0.90;99.90;;;;;;5056447;28;20029;-95
2023/01/20 07:22:19;;;;;;;73.25;26.60;;;0.90;99.90;;;;;;5056381;28;20052;-95
2023/01/20 07:24:45;;;;;;;68.75;24.02;;;0.90;99.90;;;;;;5056781;28;20116;-95
2023/01/20 07:27:10;;;;;;;81.15;27.13;;;0.90;99.90;;;;;;5055582;28;20025;-95
2023/01/20 07:29:36;;;;;;;73.65;24.77;;;1.00;99.90;;;;;;5056092;28;20369;-96
2023/01/20 07:32:02;;;;;;;70.05;24.88;;;0.90;99.90;;;;;;5055906;28;20028;-94
2023/01/20 07:34:28;;;;;;;68.55;24.45;;;1.00;99.90;;;;;;5055783;28;20043;-96
2023/01/20 07:36:53;;;;;;;66.80;25.10;;;1.00;99.90;;;;;;5073383;28;20025;-95
2023/01/20 07:39:19;;;;;;;66.90;23.15;;;1.00;99.90;;;;;;5073356;28;20121;-95
2023/01/20 07:41:47;;;;;;;72.38;26.38;;;1.00;99.90;;;;;;5055251;28;20029;-95
2023/01/20 07:44:14;;;;;;;78.97;25.67;;;1.00;99.90;;;;;;5056238;28;20021;-96
2023/01/20 07:46:40;;;;;;;74.93;24.30;;;1.10;99.90;;;;;;5054077;28;20025;-94
2023/01/20 07:49:05;;;;;;;71.90;25.92;;;1.00;99.90;;;;;;5052857;28;20032;-96
2023/01/20 07:51:31;;;;;;;71.85;25.80;;;1.10;99.90;;;;;;5051231;28;20083;-95
2023/01/20 07:53:56;;;;;;;70.97;25.67;;;1.10;99.90;;;;;;5047118;28;20084;-96
2023/01/20 07:56:24;;;;;;;71.75;25.73;;;1.00;99.90;;;;;;5050503;28;20175;-96
2023/01/20 07:58:50;;;;;;;74.00;26.48;;;1.00;99.90;;;;;;5052450;28;20032;-94
2023/01/20 08:01:19;;;;;;;70.68;24.23;;;1.00;99.90;;;;;;5051954;28;20647;-95
2023/01/20 08:03:44;;;;;;;79.13;28.42;;;1.00;99.90;;;;;;5061866;28;20060;-95
2023/01/20 08:06:13;;;;;;;78.15;26.77;;;1.00;99.90;;;;;;5054225;28;20099;-95
2023/01/20 08:08:39;;;;;;;80.30;30.58;;;1.00;99.90;;;;;;5051444;28;20032;-96
2023/01/20 08:11:06;;;;;;;87.35;31.63;;;1.00;99.90;;;;;;5055653;28;20159;-95
2023/01/20 08:13:32;;;;;;;84.07;31.98;;;1.00;99.90;;;;;;5051852;28;20040;-95
2023/01/20 08:16:03;;;;;;;83.60;30.48;;;1.00;99.90;;;;;;5052073;28;20026;-95
2023/01/20 08:18:29;;;;;;;79.18;26.42;;;1.00;99.90;;;;;;5041521;28;20036;-95
2023/01/20 08:20:55;;;;;;;75.82;27.23;;;1.00;99.90;;;;;;5035582;28;20049;-95
2023/01/20 08:23:20;;;;;;;78.18;28.65;;;1.00;99.90;;;;;;5061260;28;20170;-94
2023/01/20 08:25:46;;;;;;;76.85;25.98;;;1.00;99.90;;;;;;5056831;28;20028;-94
2023/01/20 08:28:11;;;;;;;74.00;24.55;;;1.00;99.90;;;;;;5057519;28;20494;-95
2023/01/20 08:30:37;;;;;;;65.82;24.52;;;1.10;99.90;;;;;;5060894;28;20036;-95
2023/01/20 08:33:03;;;;;;;75.38;26.25;;;1.10;99.90;;;;;;5034903;28;20025;-94
2023/01/20 08:35:29;;;;;;;75.10;25.90;;;1.10;99.90;;;;;;5060577;28;20096;-95
2023/01/20 08:37:54;;;;;;;68.30;24.95;;;1.10;99.90;;;;;;5051660;28;20036;-95
2023/01/20 08:40:20;;;;;;;67.03;25.92;;;1.10;99.90;;;;;;5052822;28;20020;-96
2023/01/20 08:42:46;;;;;;;73.03;24.90;;;1.10;99.90;;;;;;5051562;28;20029;-94
2023/01/20 08:45:12;;;;;;;78.80;25.75;;;1.10;99.90;;;;;;5054035;28;20064;-94
2023/01/20 08:47:44;;;;;;;64.55;23.13;;;1.10;99.90;;;;;;5049223;28;20044;-94
2023/01/20 08:50:12;;;;;;;63.95;24.05;;;1.10;99.90;;;;;;5044948;28;20423;-95
2023/01/20 08:52:40;;;;;;;71.90;23.83;;;1.10;99.90;;;;;;5056128;28;20112;-95
2023/01/20 08:55:07;;;;;;;76.28;26.63;;;1.10;99.90;;;;;;5054304;28;20040;-95
2023/01/20 08:57:32;;;;;;;67.40;25.88;;;1.10;99.90;;;;;;5054149;28;20025;-95
2023/01/20 08:59:58;;;;;;;68.20;24.83;;;1.10;99.90;;;;;;5056055;28;20032;-94
2023/01/20 09:02:23;;;;;;;67.78;25.65;;;1.10;99.90;;;;;;5056582;28;20673;-95
2023/01/20 09:04:51;;;;;;;71.50;27.95;;;1.10;99.90;;;;;;5054869;28;20025;-94
2023/01/20 09:07:19;;;;;;;71.25;27.05;;;1.10;99.90;;;;;;5057750;28;20022;-95
2023/01/20 09:09:46;;;;;;;66.47;25.33;;;1.10;99.90;;;;;;5072554;28;20125;-95
2023/01/20 09:12:11;;;;;;;71.00;24.38;;;1.10;99.90;;;;;;5057190;28;20021;-95
2023/01/20 09:14:38;;;;;;;63.20;23.58;;;1.10;99.90;;;;;;5057398;28;20032;-96
2023/01/20 09:17:03;;;;;;;68.43;26.77;;;1.20;99.90;;;;;;5057929;28;20029;-95
2023/01/20 09:19:30;;;;;;;71.20;25.20;;;1.20;99.90;;;;;;5056608;28;20072;-95
2023/01/20 09:21:56;;;;;;;68.50;23.48;;;1.30;99.90;;;;;;5046320;28;20029;-96
2023/01/20 09:24:22;;;;;;;66.15;25.13;;;1.30;99.90;;;;;;5050892;28;20039;-96
2023/01/20 09:26:49;;;;;;;63.17;22.58;;;1.30;99.90;;;;;;5056424;28;20032;-96
2023/01/20 09:29:16;;;;;;;63.03;24.95;;;1.30;99.90;;;;;;5058895;28;20029;-95
2023/01/20 09:31:47;;;;;;;73.18;25.92;;;1.30;99.90;;;;;;5051448;28;20108;-92
2023/01/20 09:34:17;;;;;;;57.13;21.67;;;1.30;99.90;;;;;;5055469;28;20045;-93
2023/01/20 09:36:53;;;;;;;68.07;24.58;;;1.40;99.90;;;;;;5052922;28;20068;-94
2023/01/20 09:45:25;;;;;;;56.58;21.50;;;1.40;99.90;;;;;;5042994;28;20111;-95
2023/01/20 09:47:59;;;;;;;59.50;23.10;;;1.40;99.90;;;;;;5056127;28;20025;-94
2023/01/20 10:00:22;;;;;;;61.85;22.52;;;1.50;99.90;;;;;;5060413;22;20180;-95
2023/01/20 10:02:55;;;;;;;55.28;21.02;;;1.50;99.90;;;;;;5054899;28;20143;-93
2023/01/20 10:05:31;;;;;;;57.33;22.85;;;1.50;99.90;;;;;;5060943;28;20397;-94
2023/01/20 10:08:19;;;;;;;63.30;25.40;;;1.50;99.90;;;;;;5070659;28;20083;-95
2023/01/20 10:10:44;;;;;;;62.45;24.55;;;1.60;99.90;;;;;;5057564;28;20511;-93
2023/01/20 10:13:25;;;;;;;55.20;20.83;;;1.60;99.90;;;;;;5057267;28;20025;-93
2023/01/20 10:15:55;;;;;;;61.13;23.60;;;1.60;99.90;;;;;;5057311;28;20495;-92
2023/01/20 10:18:33;;;;;;;56.90;23.77;;;1.60;99.90;;;;;;5070306;28;20103;-94
2023/01/20 10:21:18;;;;;;;60.65;24.38;;;1.60;99.90;;;;;;5077127;28;20020;-92
2023/01/20 10:23:51;;;;;;;51.67;20.33;;;1.70;99.90;;;;;;5059298;28;20059;-94
2023/01/20 10:26:47;;;;;;;53.33;22.48;;;1.60;99.90;;;;;;5055340;28;20433;-93
2023/01/20 10:29:46;;;;;;;59.53;23.33;;;1.70;99.90;;;;;;5065687;28;20487;-93
2023/01/20 10:32:57;;;;;;;58.17;24.33;;;1.70;99.90;;;;;;5035920;28;20128;-94
2023/01/20 10:35:25;;;;;;;52.90;22.65;;;1.70;99.90;;;;;;5034510;28;20051;-94
2023/01/20 10:37:52;;;;;;;54.75;22.40;;;1.70;99.90;;;;;;5047268;28;20036;-95
2023/01/20 10:40:20;;;;;;;50.53;21.63;;;1.70;99.90;;;;;;5053006;28;20032;-94
2023/01/20 10:42:57;;;;;;;45.00;20.10;;;1.80;99.90;;;;;;5056043;28;20032;-94
2023/01/20 10:45:40;;;;;;;47.22;20.73;;;1.80;99.90;;;;;;5057429;28;20097;-94
2023/01/20 10:48:24;;;;;;;49.92;22.40;;;1.90;99.90;;;;;;5055115;28;20099;-95
2023/01/20 10:51:00;;;;;;;47.38;21.23;;;1.90;99.90;;;;;;5039685;28;20029;-94
2023/01/20 10:53:35;;;;;;;55.55;23.80;;;1.90;99.90;;;;;;5057040;28;20029;-95
2023/01/20 10:56:32;;;;;;;46.05;21.90;;;1.90;99.90;;;;;;5056413;28;20166;-95
2023/01/20 10:59:06;;;;;;;51.47;21.95;;;1.90;99.90;;;;;;5059960;28;20044;-93
2023/01/20 11:01:33;;;;;;;52.28;22.90;;;2.00;99.90;;;;;;5055815;28;20408;-94
2023/01/20 11:03:58;;;;;;;53.00;22.83;;;2.00;99.90;;;;;;5056151;28;20025;-93
2023/01/20 11:06:25;;;;;;;47.65;21.27;;;2.00;99.90;;;;;;5056185;28;20036;-93
2023/01/20 11:08:52;;;;;;;46.05;22.65;;;2.00;99.90;;;;;;5055188;28;20373;-94
2023/01/20 11:11:21;;;;;;;47.10;21.48;;;2.00;99.90;;;;;;5055900;28;20029;-92
2023/01/20 11:13:47;;;;;;;41.88;19.52;;;2.00;99.90;;;;;;5056338;28;20029;-93
2023/01/20 11:16:18;;;;;;;43.22;21.05;;;2.00;99.90;;;;;;5055675;28;20533;-92
2023/01/20 11:19:00;;;;;;;43.53;19.08;;;2.10;99.90;;;;;;5056224;28;20484;-92
2023/01/20 11:21:29;;;;;;;40.28;18.58;;;2.10;99.90;;;;;;5055790;28;20033;-92
2023/01/20 11:23:56;;;;;;;37.97;18.42;;;2.20;99.90;;;;;;5056012;28;20025;-93
2023/01/20 11:26:31;;;;;;;41.15;21.40;;;2.20;99.90;;;;;;5055512;28;20042;-93
2023/01/20 11:29:07;;;;;;;38.20;17.48;;;2.20;99.90;;;;;;5047345;28;20017;-93
2023/01/20 11:31:41;;;;;;;41.95;20.90;;;2.20;99.90;;;;;;5055786;28;20422;-92
2023/01/20 11:34:24;;;;;;;38.22;18.48;;;2.20;99.90;;;;;;5067809;28;20124;-92
2023/01/20 11:36:50;;;;;;;;;;;2.30;99.90;;;;;;5044198;28;20036;-92
2023/01/20 11:39:26;;;;;;;41.15;18.80;;;2.20;99.90;;;;;;5054752;28;19912;-92
2023/01/20 11:42:16;;;;;;;45.97;23.45;;;2.20;99.90;;;;;;5055509;28;20444;-92
2023/01/20 11:44:51;;;;;;;44.20;22.25;;;2.30;99.90;;;;;;5055712;28;20461;-91
2023/01/20 11:47:31;;;;;;;46.22;22.65;;;2.30;99.90;;;;;;5054569;28;20499;-91
2023/01/20 11:50:03;;;;;;;42.45;22.08;;;2.30;99.90;;;;;;5054111;28;20039;-92
2023/01/20 11:52:34;;;;;;;49.95;24.63;;;2.30;99.90;;;;;;5071691;28;20017;-91
2023/01/20 11:55:18;;;;;;;45.40;24.00;;;2.20;99.90;;;;;;5054663;28;20040;-91
2023/01/20 11:57:55;;;;;;;50.47;25.42;;;2.30;99.90;;;;;;5036501;28;20071;-92
2023/01/20 12:00:39;;;;;;;55.38;29.45;;;2.30;99.90;;;;;;5042607;28;20053;-91
2023/01/20 12:03:39;;;;;;;49.67;26.25;;;2.30;99.90;;;;;;5054702;28;20031;-92
2023/01/20 12:06:23;;;;;;;42.25;21.50;;;2.30;99.90;;;;;;5055289;28;20033;-91
2023/01/20 12:09:14;;;;;;;42.28;21.48;;;2.30;99.90;;;;;;5054449;28;20048;-92
2023/01/20 12:12:18;;;;;;;45.17;22.85;;;2.30;99.90;;;;;;5063275;28;20031;-93
2023/01/20 12:15:04;;;;;;;48.30;23.23;;;2.30;99.90;;;;;;5065158;28;20044;-92
2023/01/20 12:18:04;;;;;;;47.22;24.48;;;2.40;99.90;;;;;;5052966;28;20210;-93
2023/01/20 12:20:47;;;;;;;46.50;22.35;;;2.40;99.90;;;;;;5067768;28;20174;-91
2023/01/20 12:23:21;;;;;;;;;;;2.50;99.90;;;;;;5054459;28;20024;-91
2023/01/20 12:25:58;;;;;;;47.72;24.30;;;2.40;99.90;;;;;;5054867;28;19905;-92
2023/01/20 12:28:37;;;;;;;39.63;19.75;;;2.40;99.90;;;;;;5047730;28;20048;-92
2023/01/20 12:31:04;;;;;;;38.60;18.90;;;2.50;99.90;;;;;;5066976;28;20029;-92
2023/01/20 12:33:44;;;;;;;41.25;20.90;;;2.50;99.90;;;;;;5054387;28;20028;-92
2023/01/20 12:36:34;;;;;;;44.47;24.95;;;2.50;99.90;;;;;;5041251;28;20033;-92
2023/01/20 12:39:08;;;;;;;37.45;19.85;;;2.60;99.90;;;;;;5054472;28;20028;-91
2023/01/20 12:41:45;;;;;;;42.08;23.42;;;2.60;99.90;;;;;;5054463;28;20060;-92
2023/01/20 12:44:34;;;;;;;36.95;20.92;;;2.60;99.90;;;;;;5054385;28;20162;-92
2023/01/20 12:47:07;;;;;;;37.22;20.40;;;2.50;99.90;;;;;;5053230;28;20119;-92
2023/01/20 12:49:48;;;;;;;38.03;20.35;;;2.50;99.90;;;;;;5054171;28;20025;-91
2023/01/20 12:52:28;;;;;;;37.33;20.20;;;2.50;99.90;;;;;;5054185;28;20455;-91
2023/01/20 12:55:14;;;;;;;38.50;22.85;;;2.50;99.90;;;;;;5050622;28;20098;-92
2023/01/20 12:57:59;;;;;;;40.85;22.33;;;2.50;99.90;;;;;;5054316;28;20032;-91
2023/01/20 13:01:19;;;;;;;39.47;22.08;;;2.50;99.90;;;;;;5054471;28;20060;-92
2023/01/20 13:04:22;;;;;;;34.03;18.15;;;2.50;99.90;;;;;;5052637;28;20067;-92
2023/01/20 13:07:03;;;;;;;35.40;17.95;;;2.50;99.90;;;;;;5054616;28;20028;-91
2023/01/20 13:09:44;;;;;;;37.15;18.33;;;2.50;99.90;;;;;;5045680;28;20057;-92
2023/01/20 13:12:31;;;;;;;30.25;15.25;;;2.50;99.90;;;;;;5050965;28;20063;-92
2023/01/20 13:15:18;;;;;;;28.35;15.48;;;2.60;99.90;;;;;;5050015;28;20507;-91